createdAt,value
2022-11-16T00:00:43.482Z,100088.77
2022-11-16T00:03:15.748Z,100090.34
2022-11-16T00:05:47.793Z,100081.60
2022-11-16T00:08:19.809Z,100084.60
2022-11-16T00:10:52.779Z,100081.80
2022-11-16T00:13:24.915Z,100083.83
2022-11-16T00:16:00.904Z,100079.75
2022-11-16T00:18:33.621Z,100084.28
2022-11-16T00:21:08.234Z,100087.23
2022-11-16T00:23:40.900Z,100089.45
2022-11-16T00:26:15.019Z,100082.54
2022-11-16T00:28:47.088Z,100085.29
2022-11-16T00:31:20.100Z,100086.96
2022-11-16T00:33:53.226Z,100086.96
2022-11-16T00:36:26.172Z,100084.88
2022-11-16T00:38:58.278Z,100089.39
2022-11-16T00:41:30.284Z,100087.31
2022-11-16T00:44:02.460Z,100087.55
2022-11-16T00:46:35.033Z,100091.58
2022-11-16T00:49:08.368Z,100096.45
2022-11-16T00:51:40.787Z,100093.05
2022-11-16T00:54:13.448Z,100088.05
2022-11-16T00:56:45.460Z,100087.35
2022-11-16T00:59:17.665Z,100087.00
2022-11-16T01:01:49.771Z,100086.85
2022-11-16T01:04:22.203Z,100088.77
2022-11-16T01:06:54.176Z,100089.26
2022-11-16T01:09:29.852Z,100079.75
2022-11-16T01:12:10.791Z,100076.48
2022-11-16T01:14:46.449Z,100075.38
2022-11-16T01:17:18.861Z,100068.70
2022-11-16T01:19:51.140Z,100069.98
2022-11-16T01:22:23.189Z,100070.06
2022-11-16T01:24:55.261Z,100077.33
2022-11-16T01:27:27.731Z,100076.98
2022-11-16T01:30:00.441Z,100071.88
2022-11-16T01:32:32.409Z,100063.90
2022-11-16T01:35:05.645Z,100068.20
2022-11-16T01:37:39.219Z,100059.74
2022-11-16T01:40:14.219Z,100059.48
2022-11-16T01:42:48.140Z,100057.01
2022-11-16T01:45:25.033Z,100055.04
2022-11-16T01:48:00.551Z,100055.42
2022-11-16T01:50:37.661Z,100056.91
2022-11-16T01:53:13.177Z,100053.30
2022-11-16T01:55:54.760Z,100050.64
2022-11-16T01:58:35.004Z,100052.13
2022-11-16T02:01:17.527Z,100050.78
2022-11-16T02:03:52.419Z,100046.54
2022-11-16T02:06:34.346Z,100045.20
2022-11-16T02:09:46.363Z,100049.14
2022-11-16T02:12:39.430Z,100051.11
2022-11-16T02:15:23.028Z,100047.70
2022-11-16T02:18:14.675Z,100043.51
2022-11-16T02:21:10.473Z,100039.70
2022-11-16T02:24:24.496Z,100039.80
2022-11-16T02:27:54.021Z,100035.41
2022-11-16T02:30:27.138Z,100033.52
2022-11-16T02:33:05.194Z,100035.37
2022-11-16T02:35:43.485Z,100030.52
2022-11-16T02:38:19.539Z,100019.99
2022-11-16T02:40:54.864Z,100031.96
2022-11-16T02:43:35.973Z,100026.89
2022-11-16T02:46:13.167Z,100024.45
2022-11-16T02:48:49.084Z,100020.09
2022-11-16T02:51:24.144Z,100017.13
2022-11-16T02:54:08.611Z,100018.41
2022-11-16T02:56:51.612Z,100016.63
2022-11-16T02:59:27.191Z,100024.30
2022-11-16T03:02:04.105Z,100026.52
2022-11-16T03:04:41.964Z,100027.58
2022-11-16T03:07:18.803Z,100024.50
2022-11-16T03:09:54.147Z,100031.52
2022-11-16T03:12:31.487Z,100027.66
2022-11-16T03:15:07.296Z,100030.42
2022-11-16T03:17:44.672Z,100032.73
2022-11-16T03:20:22.486Z,100033.29
2022-11-16T03:22:59.687Z,100031.20
2022-11-16T03:25:37.448Z,100032.23
2022-11-16T03:28:15.192Z,100021.99
2022-11-16T03:30:53.984Z,100015.73
2022-11-16T03:33:31.718Z,100021.66
2022-11-16T03:36:09.471Z,100024.78
2022-11-16T03:38:44.656Z,100020.95
2022-11-16T03:41:20.063Z,100015.37
2022-11-16T03:43:54.743Z,100012.52
2022-11-16T03:46:27.306Z,100008.82
2022-11-16T03:49:03.440Z,100004.39
2022-11-16T03:51:41.717Z,100006.10
2022-11-16T03:54:14.142Z,100001.89
2022-11-16T03:56:46.626Z,99994.60
2022-11-16T03:59:18.915Z,99996.91
2022-11-16T04:01:51.032Z,99995.06
2022-11-16T04:04:41.099Z,99990.52
2022-11-16T04:07:31.481Z,99985.73
2022-11-16T04:10:21.063Z,99988.40
2022-11-16T04:13:11.468Z,99980.34
2022-11-16T04:16:01.456Z,99985.64
2022-11-16T04:18:50.752Z,99983.46
2022-11-16T04:21:43.914Z,99984.90
2022-11-16T04:24:20.104Z,99980.55
2022-11-16T04:27:13.213Z,99977.29
2022-11-16T04:29:46.959Z,99976.02
2022-11-16T04:32:37.409Z,99970.55
2022-11-16T04:35:27.878Z,99970.13
2022-11-16T04:38:01.088Z,99961.22
2022-11-16T04:40:36.493Z,99958.71
2022-11-16T04:43:08.834Z,99958.17
2022-11-16T04:46:01.441Z,99952.57
2022-11-16T04:48:40.769Z,99945.45
2022-11-16T04:51:13.876Z,99940.14
2022-11-16T04:53:45.950Z,99936.52
2022-11-16T04:56:23.490Z,99938.26
2022-11-16T04:58:55.662Z,99939.12
2022-11-16T05:01:41.796Z,99933.40
2022-11-16T05:04:13.926Z,99930.26
2022-11-16T05:06:47.128Z,99926.46
2022-11-16T05:09:19.391Z,99919.55
2022-11-16T05:11:51.492Z,99920.00
2022-11-16T05:14:23.820Z,99903.90
2022-11-16T05:16:58.351Z,99911.13
2022-11-16T05:19:48.876Z,99909.84
2022-11-16T05:22:21.158Z,99906.11
2022-11-16T05:24:54.045Z,99907.45
2022-11-16T05:27:30.169Z,99911.34
2022-11-16T05:30:03.060Z,99914.29
2022-11-16T05:32:36.080Z,99918.45
2022-11-16T05:35:10.632Z,99921.33
2022-11-16T05:37:43.083Z,99919.02
2022-11-16T05:40:16.054Z,99922.61
2022-11-16T05:43:02.059Z,99922.96
2022-11-16T05:45:36.326Z,99917.38
2022-11-16T05:48:08.900Z,99917.09
2022-11-16T05:50:42.966Z,99920.68
2022-11-16T05:53:25.663Z,99919.28
2022-11-16T05:55:58.148Z,99917.22
2022-11-16T05:58:31.440Z,99915.48
2022-11-16T06:01:04.530Z,99913.60
2022-11-16T06:03:37.414Z,99914.41
2022-11-16T06:06:10.416Z,99917.06
2022-11-16T06:08:43.110Z,99917.31
2022-11-16T06:11:18.881Z,99915.05
2022-11-16T06:13:51.333Z,99920.33
2022-11-16T06:16:30.966Z,99919.66
2022-11-16T06:19:03.554Z,99922.52
2022-11-16T06:21:36.061Z,99918.20
2022-11-16T06:24:11.951Z,99920.19
2022-11-16T06:26:44.173Z,99917.56
2022-11-16T06:29:17.412Z,99917.89
2022-11-16T06:31:50.230Z,99919.28
2022-11-16T06:34:41.130Z,99923.15
2022-11-16T06:38:56.566Z,99920.42
2022-11-16T06:41:28.998Z,99918.22
2022-11-16T06:44:01.685Z,99922.64
2022-11-16T06:46:57.854Z,99919.89
2022-11-16T06:49:30.653Z,99915.11
2022-11-16T06:52:04.743Z,99912.36
2022-11-16T06:54:37.343Z,99913.19
2022-11-16T06:57:10.738Z,99913.02
2022-11-16T06:59:43.891Z,99919.33
2022-11-16T07:02:16.796Z,99918.35
2022-11-16T07:04:50.010Z,99921.14
2022-11-16T07:07:22.570Z,99917.31
2022-11-16T07:09:55.311Z,99917.34
2022-11-16T07:12:27.838Z,99918.33
2022-11-16T07:15:01.084Z,99923.36
2022-11-16T07:17:35.023Z,99918.45
2022-11-16T07:20:09.447Z,99920.77
2022-11-16T07:22:42.735Z,99921.57
2022-11-16T07:25:16.045Z,99921.19
2022-11-16T07:27:48.460Z,99924.58
2022-11-16T07:30:22.106Z,99926.69
2022-11-16T07:33:05.450Z,99930.52
2022-11-16T07:36:01.492Z,99933.76
2022-11-16T07:38:34.765Z,99927.71
2022-11-16T07:41:10.933Z,99926.45
2022-11-16T07:43:53.047Z,99929.19
2022-11-16T07:46:47.470Z,99933.52
2022-11-16T07:49:21.099Z,99931.00
2022-11-16T07:51:59.522Z,99932.38
2022-11-16T07:54:50.543Z,99926.80
2022-11-16T07:57:23.038Z,99932.55
2022-11-16T07:59:56.638Z,99928.84
2022-11-16T08:02:30.048Z,99928.55
2022-11-16T08:05:02.475Z,99924.48
2022-11-16T08:07:36.346Z,99923.95
2022-11-16T08:10:10.242Z,99924.52
2022-11-16T08:12:43.239Z,99926.58
2022-11-16T08:15:16.089Z,99923.22
2022-11-16T08:17:48.732Z,99923.33
2022-11-16T08:20:22.229Z,99925.56
2022-11-16T08:22:54.607Z,99927.17
2022-11-16T08:25:27.325Z,99934.25
2022-11-16T08:28:00.238Z,99928.85
2022-11-16T08:30:32.606Z,99925.81
2022-11-16T08:33:08.264Z,99931.98
2022-11-16T08:35:40.776Z,99930.14
2022-11-16T08:38:12.935Z,99930.14
2022-11-16T08:40:45.191Z,99926.47
2022-11-16T08:43:17.996Z,99937.27
2022-11-16T08:45:53.287Z,99933.04
2022-11-16T08:48:25.951Z,99931.08
2022-11-16T08:51:17.047Z,99926.73
2022-11-16T08:53:58.435Z,99927.92
2022-11-16T08:56:31.007Z,99930.54
2022-11-16T08:59:03.520Z,99939.81
2022-11-16T09:01:36.600Z,99939.56
2022-11-16T09:04:12.440Z,99941.89
2022-11-16T09:06:45.191Z,99944.33
2022-11-16T09:09:17.370Z,99943.73
2022-11-16T09:11:52.082Z,99939.95
2022-11-16T09:14:23.137Z,99938.52
2022-11-16T09:16:55.901Z,99932.66
2022-11-16T09:19:28.185Z,99940.08
2022-11-16T09:22:00.354Z,99943.08
2022-11-16T09:24:34.446Z,99941.55
2022-11-16T09:27:06.842Z,99940.80
2022-11-16T09:29:39.897Z,99938.02
2022-11-16T09:32:12.163Z,99936.69
2022-11-16T09:34:45.250Z,99937.13
2022-11-16T09:37:17.563Z,99939.30
2022-11-16T09:39:49.654Z,99934.86
2022-11-16T09:42:37.063Z,99938.39
2022-11-16T09:45:16.828Z,99934.79
2022-11-16T09:47:54.085Z,99932.08
2022-11-16T09:50:40.318Z,99936.83
2022-11-16T09:53:26.785Z,99931.38
2022-11-16T09:56:00.890Z,99919.23
2022-11-16T09:58:39.128Z,99925.63
2022-11-16T10:01:24.696Z,99923.94
2022-11-16T10:04:03.728Z,99923.89
2022-11-16T10:06:46.115Z,99923.08
2022-11-16T10:09:18.583Z,99918.48
2022-11-16T10:12:03.185Z,99927.84
2022-11-16T10:15:04.898Z,99924.73
2022-11-16T10:17:50.419Z,99922.30
2022-11-16T10:20:42.703Z,99918.78
2022-11-16T10:23:23.239Z,99922.58
2022-11-16T10:25:59.236Z,99917.51
2022-11-16T10:28:52.377Z,99918.85
2022-11-16T10:31:33.742Z,99914.70
2022-11-16T10:34:10.466Z,99915.42
2022-11-16T10:36:43.178Z,99914.39
2022-11-16T10:39:18.216Z,99911.83
2022-11-16T10:41:51.523Z,99913.96
2022-11-16T10:44:33.530Z,99909.13
2022-11-16T10:47:11.118Z,99910.61
2022-11-16T10:49:49.071Z,99904.26
2022-11-16T10:52:21.320Z,99898.84
2022-11-16T10:54:53.921Z,99904.30
2022-11-16T10:57:26.625Z,99899.85
2022-11-16T10:59:59.421Z,99898.45
2022-11-16T11:02:36.512Z,99897.70
2022-11-16T11:05:17.450Z,99896.02
2022-11-16T11:07:59.362Z,99886.92
2022-11-16T11:10:34.192Z,99890.55
2022-11-16T11:13:18.771Z,99885.58
2022-11-16T11:15:52.094Z,99891.88
2022-11-16T11:18:30.324Z,99887.79
2022-11-16T11:21:14.709Z,99888.16
2022-11-16T11:23:53.130Z,99896.70
2022-11-16T11:26:36.853Z,99895.30
2022-11-16T11:29:22.019Z,99898.88
2022-11-16T11:31:56.327Z,99895.54
2022-11-16T11:34:30.463Z,99895.92
2022-11-16T11:37:04.957Z,99885.76
2022-11-16T11:39:38.462Z,99886.30
2022-11-16T11:42:24.464Z,99883.69
2022-11-16T11:45:03.623Z,99878.90
2022-11-16T11:47:57.996Z,99880.55
2022-11-16T11:50:43.582Z,99886.45
2022-11-16T11:53:45.306Z,99887.56
2022-11-16T11:56:18.680Z,99883.58
2022-11-16T11:58:52.075Z,99881.24
2022-11-16T12:01:49.220Z,99879.64
2022-11-16T12:04:55.675Z,99877.08
2022-11-16T12:07:39.306Z,99872.59
2022-11-16T12:10:22.630Z,99873.35
2022-11-16T12:13:04.871Z,99872.88
2022-11-16T12:15:49.041Z,99868.09
2022-11-16T12:18:44.405Z,99873.45
2022-11-16T12:21:23.515Z,99864.67
2022-11-16T12:24:15.821Z,99865.90
2022-11-16T12:26:57.639Z,99861.14
2022-11-16T12:29:37.313Z,99860.26
2022-11-16T12:32:41.149Z,99855.15
2022-11-16T12:35:45.974Z,99851.65
2022-11-16T12:38:30.721Z,99855.05
2022-11-16T12:41:08.756Z,99850.45
2022-11-16T12:43:53.839Z,99852.36
2022-11-16T12:46:28.795Z,99850.19
2022-11-16T12:49:32.566Z,99849.17
2022-11-16T12:52:17.573Z,99848.02
2022-11-16T12:55:26.789Z,99852.91
2022-11-16T12:58:09.225Z,99851.73
2022-11-16T13:00:53.403Z,99846.45
2022-11-16T13:03:31.752Z,99846.88
2022-11-16T13:06:07.896Z,99847.70
2022-11-16T13:08:46.760Z,99829.22
2022-11-16T13:11:24.558Z,99843.42
2022-11-16T13:14:01.343Z,99838.49
2022-11-16T13:16:35.465Z,99840.24
2022-11-16T13:19:13.090Z,99839.48
2022-11-16T13:21:54.146Z,99833.69
2022-11-16T13:24:38.857Z,99832.19
2022-11-16T13:27:24.663Z,99835.19
2022-11-16T13:30:04.544Z,99841.54
2022-11-16T13:32:57.144Z,99837.90
2022-11-16T13:35:30.882Z,99838.40
2022-11-16T13:38:03.391Z,99833.07
2022-11-16T13:40:36.332Z,99836.61
2022-11-16T13:43:20.257Z,99838.63
2022-11-16T13:45:59.490Z,99833.59
2022-11-16T13:48:35.988Z,99838.84
2022-11-16T13:51:18.428Z,99833.77
2022-11-16T13:56:52.069Z,99828.05
2022-11-16T13:59:29.276Z,99833.06
2022-11-16T14:02:03.860Z,99832.19
2022-11-16T14:04:54.471Z,99831.29
2022-11-16T14:07:40.787Z,99828.52
2022-11-16T14:10:34.624Z,99832.29
2022-11-16T14:13:20.473Z,99838.58
2022-11-16T14:16:30.892Z,99838.64
2022-11-16T14:19:06.273Z,99838.60
2022-11-16T14:21:48.901Z,99843.98
2022-11-16T14:24:32.529Z,99844.13
2022-11-16T14:27:16.197Z,99846.59
2022-11-16T14:29:58.241Z,99845.14
2022-11-16T14:32:38.297Z,99846.48
2022-11-16T14:35:28.751Z,99846.00
2022-11-16T14:38:04.210Z,99839.79
2022-11-16T14:40:47.541Z,99842.17
2022-11-16T14:43:24.680Z,99842.55
2022-11-16T14:46:00.513Z,99839.54
2022-11-16T14:48:35.160Z,99841.30
2022-11-16T14:51:12.605Z,99843.31
2022-11-16T14:53:49.951Z,99841.51
2022-11-16T14:56:22.806Z,99839.99
2022-11-16T14:58:57.601Z,99834.73
2022-11-16T15:01:32.608Z,99839.94
2022-11-16T15:04:07.998Z,99839.74
2022-11-16T15:06:44.278Z,99840.15
2022-11-16T15:09:22.923Z,99838.19
2022-11-16T15:12:21.722Z,99832.15
2022-11-16T15:14:57.511Z,99834.24
2022-11-16T15:17:33.414Z,99836.52
2022-11-16T15:20:16.151Z,99831.89
2022-11-16T15:22:51.642Z,99833.91
2022-11-16T15:25:30.576Z,99833.00
2022-11-16T15:28:04.308Z,99832.36
2022-11-16T15:30:40.267Z,99836.20
2022-11-16T15:33:17.237Z,99835.38
2022-11-16T15:35:49.392Z,99833.39
2022-11-16T15:38:24.735Z,99831.84
2022-11-16T15:40:59.900Z,99833.95
2022-11-16T15:43:41.084Z,99830.52
2022-11-16T15:46:18.375Z,99831.81
2022-11-16T15:48:51.645Z,99829.26
2022-11-16T15:51:24.949Z,99830.80
2022-11-16T15:54:23.757Z,99830.35
2022-11-16T15:56:59.579Z,99831.08
2022-11-16T15:59:35.095Z,99829.31
2022-11-16T16:02:16.350Z,99830.33
2022-11-16T16:04:49.396Z,99831.89
2022-11-16T16:07:41.966Z,99832.96
2022-11-16T16:10:27.267Z,99835.36
2022-11-16T16:12:59.206Z,99833.90
2022-11-16T16:15:37.012Z,99834.65
2022-11-16T16:18:40.857Z,99832.33
2022-11-16T16:21:14.774Z,99830.44
2022-11-16T16:23:51.891Z,99828.60
2022-11-16T16:26:25.445Z,99831.73
2022-11-16T16:28:58.799Z,99833.95
2022-11-16T16:31:32.757Z,99829.84
2022-11-16T16:34:15.171Z,99836.36
2022-11-16T16:36:48.089Z,99838.96
2022-11-16T16:39:20.685Z,99832.14
2022-11-16T16:41:53.681Z,99836.41
2022-11-16T16:44:26.577Z,99835.66
2022-11-16T16:46:59.718Z,99840.56
2022-11-16T16:49:33.167Z,99839.22
2022-11-16T16:52:07.196Z,99838.84
2022-11-16T16:54:40.512Z,99847.23
2022-11-16T16:57:17.271Z,99844.14
2022-11-16T16:59:50.754Z,99840.52
2022-11-16T17:02:25.561Z,99845.66
2022-11-16T17:04:58.901Z,99844.38
2022-11-16T17:07:32.458Z,99848.17
2022-11-16T17:10:06.442Z,99846.59
2022-11-16T17:12:40.582Z,99847.34
2022-11-16T17:15:19.211Z,99849.00
2022-11-16T17:17:53.046Z,99846.17
2022-11-16T17:20:26.207Z,99846.13
2022-11-16T17:23:00.173Z,99846.02
2022-11-16T17:25:33.735Z,99842.50
2022-11-16T17:28:07.411Z,99846.50
2022-11-16T17:30:43.006Z,99855.22
2022-11-16T17:33:26.226Z,99858.15
2022-11-16T17:36:03.539Z,99859.70
2022-11-16T17:38:38.296Z,99863.23
2022-11-16T17:41:13.861Z,99861.27
2022-11-16T17:43:47.739Z,99859.39
2022-11-16T17:46:22.431Z,99859.43
2022-11-16T17:48:55.242Z,99859.39
2022-11-16T17:51:30.486Z,99855.85
2022-11-16T17:54:04.743Z,99856.23
2022-11-16T17:56:39.419Z,99857.86
2022-11-16T17:59:13.742Z,99857.92
2022-11-16T18:01:47.244Z,99856.80
2022-11-16T18:04:21.599Z,99862.48
2022-11-16T18:06:56.516Z,99867.23
2022-11-16T18:09:31.239Z,99859.73
2022-11-16T18:12:06.008Z,99856.77
2022-11-16T18:14:42.489Z,99860.91
2022-11-16T18:17:18.407Z,99861.73
2022-11-16T18:19:52.097Z,99863.35
2022-11-16T18:22:26.263Z,99857.36
2022-11-16T18:25:02.241Z,99856.76
2022-11-16T18:27:36.453Z,99860.91
2022-11-16T18:30:11.655Z,99865.27
2022-11-16T18:32:45.068Z,99863.73
2022-11-16T18:35:19.099Z,99870.23
2022-11-16T18:37:55.838Z,99874.27
2022-11-16T18:40:31.685Z,99873.25
2022-11-16T18:43:07.256Z,99874.54
2022-11-16T18:45:41.618Z,99879.43
2022-11-16T18:48:17.301Z,99875.19
2022-11-16T18:50:53.679Z,99868.71
2022-11-16T18:53:28.190Z,99875.16
2022-11-16T18:56:01.156Z,99879.40
2022-11-16T18:58:49.750Z,99880.42
2022-11-16T19:01:27.543Z,99878.34
2022-11-16T19:04:01.909Z,99865.73
2022-11-16T19:06:36.627Z,99867.35
2022-11-16T19:09:11.582Z,99866.29
2022-11-16T19:11:48.580Z,99875.05
2022-11-16T19:14:22.722Z,99873.13
2022-11-16T19:16:57.545Z,99882.41
2022-11-16T19:19:31.633Z,99891.27
2022-11-16T19:22:07.036Z,99895.05
2022-11-16T19:24:41.163Z,99900.39
2022-11-16T19:27:16.789Z,99899.67
2022-11-16T19:29:51.876Z,99904.12
2022-11-16T19:32:26.480Z,99904.67
2022-11-16T19:35:00.745Z,99901.49
2022-11-16T19:37:35.756Z,99898.51
2022-11-16T19:40:12.001Z,99893.52
2022-11-16T19:42:46.946Z,99893.83
2022-11-16T19:45:22.179Z,99892.41
2022-11-16T19:47:59.224Z,99890.81
2022-11-16T19:50:33.800Z,99889.23
2022-11-16T19:53:08.168Z,99889.48
2022-11-16T19:55:42.141Z,99891.05
2022-11-16T19:58:17.050Z,99888.90
2022-11-16T20:00:50.781Z,99887.54
2022-11-16T20:03:25.465Z,99889.98
2022-11-16T20:06:07.576Z,99888.42
2022-11-16T20:08:42.010Z,99894.77
2022-11-16T20:11:17.173Z,99892.41
2022-11-16T20:13:51.301Z,99891.13
2022-11-16T20:16:27.967Z,99899.98
2022-11-16T20:19:00.916Z,99900.20
2022-11-16T20:21:35.595Z,99901.13
2022-11-16T20:24:11.667Z,99894.08
2022-11-16T20:26:46.317Z,99894.70
2022-11-16T20:29:20.887Z,99873.54
2022-11-16T20:31:54.118Z,99902.05
2022-11-16T20:34:26.898Z,99897.09
2022-11-16T20:36:59.104Z,99893.16
2022-11-16T20:39:31.745Z,99894.44
2022-11-16T20:42:04.216Z,99892.27
2022-11-16T20:44:36.885Z,99893.48
2022-11-16T20:47:09.235Z,99882.77
2022-11-16T20:49:41.492Z,99891.20
2022-11-16T20:52:13.796Z,99888.34
2022-11-16T20:54:46.309Z,99885.33
2022-11-16T20:57:18.613Z,99882.34
2022-11-16T20:59:51.855Z,99890.42
2022-11-16T21:02:24.859Z,99893.55
2022-11-16T21:05:00.215Z,99900.52
2022-11-16T21:07:33.188Z,99898.00
2022-11-16T21:10:22.313Z,99891.86
2022-11-16T21:13:12.705Z,99890.63
2022-11-16T21:15:45.456Z,99893.25
2022-11-16T21:18:17.611Z,99888.44
2022-11-16T21:20:50.310Z,99892.46
2022-11-16T21:23:23.087Z,99896.72
2022-11-16T21:25:56.037Z,99890.88
2022-11-16T21:28:28.458Z,99888.73
2022-11-16T21:31:05.584Z,99884.98
2022-11-16T21:33:40.641Z,99881.73
2022-11-16T21:36:15.990Z,99883.88
2022-11-16T21:38:49.076Z,99877.30
2022-11-16T21:41:23.016Z,99879.96
2022-11-16T21:43:57.734Z,99880.98
2022-11-16T21:46:30.192Z,99893.89
2022-11-16T21:49:02.466Z,99894.88
2022-11-16T21:51:34.939Z,99876.83
2022-11-16T21:54:07.759Z,99890.06
2022-11-16T21:56:39.846Z,99894.35
2022-11-16T21:59:12.556Z,99892.56
2022-11-16T22:02:00.989Z,99901.55
2022-11-16T22:04:51.459Z,99903.54
2022-11-16T22:07:37.893Z,99904.89
2022-11-16T22:10:12.585Z,99905.34
2022-11-16T22:12:44.671Z,99911.30
2022-11-16T22:15:17.201Z,99911.60
2022-11-16T22:17:49.339Z,99910.23
2022-11-16T22:20:21.844Z,99904.95
2022-11-16T22:22:54.462Z,99909.00
2022-11-16T22:25:27.000Z,99911.02
2022-11-16T22:28:19.784Z,99906.55
2022-11-16T22:30:59.569Z,99899.89
2022-11-16T22:33:32.558Z,99868.44
2022-11-16T22:36:05.999Z,99889.06
2022-11-16T22:38:39.005Z,99894.26
2022-11-16T22:41:11.848Z,99891.70
2022-11-16T22:43:44.106Z,99890.70
2022-11-16T22:46:16.491Z,99896.30
2022-11-16T22:48:49.451Z,99894.95
2022-11-16T22:51:23.645Z,99896.19
2022-11-16T22:53:56.716Z,99894.98
2022-11-16T22:56:29.922Z,99899.55
2022-11-16T22:59:02.504Z,99896.01
2022-11-16T23:01:34.788Z,99890.21
2022-11-16T23:04:07.922Z,99891.58
2022-11-16T23:06:40.218Z,99896.10
2022-11-16T23:09:12.281Z,99891.18
2022-11-16T23:12:02.259Z,99890.50
2022-11-16T23:14:52.040Z,99880.36
2022-11-16T23:17:24.647Z,99871.92
2022-11-16T23:20:17.858Z,99875.17
2022-11-16T23:23:07.940Z,99872.23
2022-11-16T23:25:58.046Z,99872.13
2022-11-16T23:28:30.202Z,99877.29
2022-11-16T23:31:02.608Z,99871.84
2022-11-16T23:33:45.145Z,99872.58
2022-11-16T23:36:17.816Z,99868.98
2022-11-16T23:38:50.500Z,99865.36
2022-11-16T23:41:40.783Z,99868.13
2022-11-16T23:44:13.064Z,99867.18
2022-11-16T23:46:45.685Z,99865.38
2022-11-16T23:49:18.456Z,99868.19
2022-11-16T23:51:50.642Z,99863.09
2022-11-16T23:54:22.988Z,99861.98
2022-11-16T23:56:55.412Z,99869.38
2022-11-16T23:59:27.897Z,99865.80
